Es ist keine erhöhte Aufmerksamkeit aufgrund des Wetters notwendig.   -   Es gibt keine Warnungen.

Nearby METAR Reports

 

ENZV - Stavanger
aktuell: 14/12/2017 10:50
Light drizzle, mostly cloudy
Light drizzle, mostly cloudy
 Wind von SSO
Wind: SSO 4 km/h
Temperatur: 1°C
Taupunkt: 0°C
Luftfeuchte: 93%
Luftdruck: 977 hPa
Zusammenfassung: Light drizzle
Clouds: stark bewölkt
Visibility: 8 km
2017/12/14 09:50 ENZV 140950Z 16002KT 8000 -DZ SCT006 BKN010 01/00 Q0977 TEMPO 3000 SHRASNGS
ENBR - Bergen
aktuell: 14/12/2017 10:50
stark bewölkt
stark bewölkt
 Wind von NO
Wind: NO 6 km/h
Temperatur: 1°C
Taupunkt: -2°C
Luftfeuchte: 81%
Luftdruck: 977 hPa
Clouds: stark bewölkt
Visibility: 10 km
2017/12/14 09:50 ENBR 140950Z 05003KT 9999 FEW020 SCT050 BKN095 01/M02 Q0977 NOSIG RMK WIND 1200FT 16003KT
 
ENHD - Haugesund
aktuell: 14/12/2017 10:50
Light rain, mostly cloudy
Light rain, mostly cloudy
 Wind von SO
Wind: SO 6 km/h
Temperatur: 2°C
Taupunkt: 1°C
Luftfeuchte: 93%
Luftdruck: 977 hPa
Zusammenfassung: sehr leichter Niederschlag
Clouds: stark bewölkt
Visibility: 10 km
2017/12/14 09:50 ENHD 140950Z 13003KT 9999 6000SE -RA BKN008 BKN013 02/01 Q0977
ENCN - Kristiansand
aktuell: 14/12/2017 10:50
Light rain, mostly cloudy
Light rain, mostly cloudy
 Wind von NO
Wind: NO 22 km/h
Temperatur: 1°C
Wind Chill: -4°C
Taupunkt: 0°C
Luftfeuchte: 93%
Luftdruck: 977 hPa
Zusammenfassung: sehr leichter Niederschlag
Clouds: stark bewölkt
Visibility: 6 km
2017/12/14 09:50 ENCN 140950Z 04012KT 6000 -RA BKN008 01/00 Q0977
 
ENBO - Bodø
aktuell: 14/12/2017 10:50
Few clouds
Few clouds
 Wind von O
Wind: O 22 km/h
Temperatur: -1°C
Wind Chill: -7°C
Taupunkt: -6°C
Luftfeuchte: 69%
Luftdruck: 987 hPa
Clouds: Few clouds
Visibility: 10 km
2017/12/14 09:50 ENBO 140950Z 08012KT 9999 FEW035 M01/M06 Q0987 NOSIG
ENKR - Kirkenes
aktuell: 14/12/2017 10:50
teilweise bewölkt
teilweise bewölkt
 Wind von WSW
Wind: WSW 26 km/h
Temperatur: -3°C
Wind Chill: -9°C
Taupunkt: -5°C
Luftfeuchte: 86%
Luftdruck: 979 hPa
Clouds: teilweise bewölkt
Visibility: 10 km
2017/12/14 09:50 ENKR 140950Z 24014KT 9999 FEW028 SCT130 M03/M05 Q0979 RMK WIND 731FT 25029KT
 
ENVA - Trondheim
aktuell: 14/12/2017 10:50
klar
klar
 Wind von O
Wind: O 11 km/h
Temperatur: -11°C
Wind Chill: -17°C
Taupunkt: -12°C
Luftfeuchte: 92%
Luftdruck: 985 hPa
Zusammenfassung: klar
Visibility: greater than 10 km
2017/12/14 09:50 ENVA 140950Z 09006KT CAVOK M11/M12 Q0985 NOSIG RMK WIND 670FT 11007KT
ENGM - Oslo
aktuell: 14/12/2017 10:50
Light freezing, drizzle, mostly cloudy
Light freezing, drizzle, mostly cloudy
 Wind von NNO
Wind: NNO 15 km/h
Temperatur: -4°C
Wind Chill: -9°C
Taupunkt: -5°C
Luftfeuchte: 93%
Luftdruck: 981 hPa
Zusammenfassung: Light freezing, drizzle
Clouds: stark bewölkt
Visibility: 6 km
2017/12/14 09:50 ENGM 140950Z 03008KT 6000 -FZDZ SCT010 BKN014 M04/M05 Q0981 TEMPO 4000 -SN BKN008